createdAt,value
2022-12-28T00:02:01.969Z,1.70
2022-12-28T00:04:34.596Z,2.13
2022-12-28T00:07:08.150Z,2.33
2022-12-28T00:09:40.802Z,2.42
2022-12-28T00:12:13.719Z,2.28
2022-12-28T00:14:46.365Z,1.67
2022-12-28T00:17:19.301Z,1.63
2022-12-28T00:19:51.936Z,1.60
2022-12-28T00:22:24.797Z,2.10
2022-12-28T00:24:57.398Z,1.45
2022-12-28T00:27:30.563Z,1.67
2022-12-28T00:30:05.065Z,2.17
2022-12-28T00:32:37.993Z,1.40
2022-12-28T00:35:10.479Z,2.30
2022-12-28T00:37:43.501Z,2.03
2022-12-28T00:40:22.056Z,2.53
2022-12-28T00:42:56.746Z,2.60
2022-12-28T00:45:29.308Z,1.52
2022-12-28T00:48:02.291Z,1.88
2022-12-28T00:50:34.967Z,2.92
2022-12-28T00:53:08.514Z,2.00
2022-12-28T00:55:41.453Z,3.42
2022-12-28T00:58:15.457Z,2.42
2022-12-28T01:00:49.475Z,3.15
2022-12-28T01:03:22.473Z,2.78
2022-12-28T01:05:57.072Z,3.05
2022-12-28T01:08:29.985Z,2.65
2022-12-28T01:11:07.103Z,1.83
2022-12-28T01:13:40.044Z,2.47
2022-12-28T01:16:17.356Z,3.22
2022-12-28T01:18:52.575Z,2.65
2022-12-28T01:21:27.944Z,2.10
2022-12-28T01:24:02.690Z,2.45
2022-12-28T01:26:37.473Z,3.33
2022-12-28T01:29:10.479Z,4.20
2022-12-28T01:31:43.034Z,5.03
2022-12-28T01:34:18.674Z,5.00
2022-12-28T01:36:52.399Z,3.80
2022-12-28T01:39:25.370Z,4.00
2022-12-28T01:42:01.391Z,3.70
2022-12-28T01:44:40.159Z,3.90
2022-12-28T01:47:14.677Z,5.10
2022-12-28T01:49:56.834Z,4.20
2022-12-28T01:55:05.223Z,4.47
2022-12-28T01:57:45.698Z,3.95
2022-12-28T02:00:19.042Z,3.43
2022-12-28T02:03:18.313Z,3.20
2022-12-28T02:05:53.877Z,3.40
2022-12-28T02:08:36.435Z,3.83
2022-12-28T02:11:14.067Z,4.05
2022-12-28T02:13:48.755Z,3.97
2022-12-28T02:16:21.706Z,2.53
2022-12-28T02:18:54.662Z,3.05
2022-12-28T02:21:47.953Z,1.58
2022-12-28T02:24:39.251Z,2.58
2022-12-28T02:27:20.972Z,2.40
2022-12-28T02:30:12.791Z,2.50
2022-12-28T02:32:51.964Z,2.47
2022-12-28T02:35:27.619Z,3.33
2022-12-28T02:38:07.311Z,3.92
2022-12-28T02:40:42.147Z,3.17
2022-12-28T02:43:15.530Z,3.35
2022-12-28T02:46:07.893Z,3.60
2022-12-28T02:49:05.744Z,4.00
2022-12-28T02:51:38.260Z,3.15
2022-12-28T02:54:34.091Z,2.85
2022-12-28T02:57:15.022Z,3.63
2022-12-28T02:59:51.183Z,4.13
2022-12-28T03:02:35.276Z,2.97
2022-12-28T03:05:11.120Z,3.15
2022-12-28T03:08:10.391Z,3.10
2022-12-28T03:11:02.243Z,3.30
2022-12-28T03:16:24.946Z,3.35
2022-12-28T03:19:24.686Z,4.07
2022-12-28T03:22:16.760Z,2.47
2022-12-28T03:25:08.327Z,3.03
2022-12-28T03:28:00.971Z,1.60
2022-12-28T03:30:53.755Z,2.50
2022-12-28T03:33:27.506Z,2.42
2022-12-28T03:36:09.776Z,2.40
2022-12-28T03:39:01.869Z,2.33
2022-12-28T03:41:36.754Z,1.80
2022-12-28T03:44:28.136Z,3.13
2022-12-28T03:47:02.037Z,1.92
2022-12-28T03:49:35.613Z,1.85
2022-12-28T03:52:09.804Z,2.78
2022-12-28T03:54:43.195Z,2.38
2022-12-28T03:57:19.942Z,2.85
2022-12-28T03:59:55.688Z,3.50
2022-12-28T04:02:29.063Z,3.30
2022-12-28T04:05:02.338Z,2.55
2022-12-28T04:07:34.972Z,2.42
2022-12-28T04:10:08.562Z,2.00
2022-12-28T04:12:41.124Z,2.35
2022-12-28T04:15:35.020Z,2.47
2022-12-28T04:18:07.566Z,2.50
2022-12-28T04:20:40.565Z,2.15
2022-12-28T04:23:13.171Z,2.60
2022-12-28T04:25:56.398Z,1.95
2022-12-28T04:28:29.843Z,1.70
2022-12-28T04:31:21.651Z,2.50
2022-12-28T04:34:06.958Z,2.25
2022-12-28T04:36:44.453Z,2.50
2022-12-28T04:39:20.221Z,2.67
2022-12-28T04:41:53.147Z,2.75
2022-12-28T04:44:25.716Z,1.83
2022-12-28T04:46:58.668Z,3.40
2022-12-28T04:49:31.681Z,3.22
2022-12-28T04:52:04.552Z,3.50
2022-12-28T04:54:37.198Z,2.42
2022-12-28T04:57:10.079Z,4.30
2022-12-28T04:59:42.611Z,3.70
2022-12-28T05:02:15.615Z,3.55
2022-12-28T05:04:48.241Z,3.30
2022-12-28T05:07:21.109Z,2.90
2022-12-28T05:09:53.721Z,2.67
2022-12-28T05:12:26.943Z,2.90
2022-12-28T05:14:59.524Z,4.20
2022-12-28T05:17:32.515Z,3.30
2022-12-28T05:20:05.549Z,3.25
2022-12-28T05:22:41.017Z,2.95
2022-12-28T05:25:13.803Z,2.13
2022-12-28T05:27:46.727Z,2.92
2022-12-28T05:30:19.363Z,3.40
2022-12-28T05:32:52.401Z,3.83
2022-12-28T05:35:24.959Z,3.63
2022-12-28T05:37:57.862Z,4.05
2022-12-28T05:40:30.521Z,3.60
2022-12-28T05:43:03.368Z,3.28
2022-12-28T05:45:36.003Z,4.05
2022-12-28T05:48:08.910Z,4.68
2022-12-28T05:50:41.539Z,3.67
2022-12-28T05:53:14.633Z,3.50
2022-12-28T05:55:47.186Z,2.88
2022-12-28T05:58:20.090Z,3.47
2022-12-28T06:00:52.646Z,3.05
2022-12-28T06:03:25.708Z,3.30
2022-12-28T06:05:58.374Z,4.28
2022-12-28T06:08:31.260Z,4.82
2022-12-28T06:11:04.961Z,5.38
2022-12-28T06:13:38.262Z,5.95
2022-12-28T06:16:12.975Z,7.07
2022-12-28T06:18:46.295Z,7.90
2022-12-28T06:21:23.274Z,6.13
2022-12-28T06:23:58.307Z,7.30
2022-12-28T06:26:31.852Z,7.35
2022-12-28T06:29:05.058Z,7.47
2022-12-28T06:31:38.811Z,4.43
2022-12-28T06:34:11.847Z,5.13
2022-12-28T06:36:45.399Z,4.15
2022-12-28T06:39:18.537Z,5.03
2022-12-28T06:41:51.068Z,7.85
2022-12-28T06:44:23.877Z,6.80
2022-12-28T06:46:56.409Z,9.10
2022-12-28T06:49:29.396Z,5.90
2022-12-28T06:52:01.974Z,4.55
2022-12-28T06:54:34.869Z,6.32
2022-12-28T06:57:07.508Z,6.95
2022-12-28T06:59:40.943Z,10.68
2022-12-28T07:02:13.652Z,9.00
2022-12-28T07:04:46.686Z,5.18
2022-12-28T07:07:19.254Z,3.80
2022-12-28T07:09:52.393Z,8.05
2022-12-28T07:12:24.876Z,7.85
2022-12-28T07:14:57.813Z,9.20
2022-12-28T07:17:30.340Z,5.32
2022-12-28T07:20:03.280Z,6.13
2022-12-28T07:22:35.829Z,4.28
2022-12-28T07:25:08.762Z,3.58
2022-12-28T07:27:41.348Z,3.50
2022-12-28T07:30:15.098Z,4.28
2022-12-28T07:32:47.645Z,4.85
2022-12-28T07:35:20.700Z,4.68
2022-12-28T07:37:54.447Z,5.18
2022-12-28T07:40:27.456Z,5.32
2022-12-28T07:43:00.588Z,5.53
2022-12-28T07:45:33.611Z,6.28
2022-12-28T07:48:06.231Z,6.53
2022-12-28T07:50:39.678Z,7.38
2022-12-28T07:53:12.507Z,6.68
2022-12-28T07:55:58.014Z,4.50
2022-12-28T07:58:30.674Z,4.28
2022-12-28T08:01:08.812Z,2.92
2022-12-28T08:03:42.201Z,5.82
2022-12-28T08:06:16.742Z,7.47
2022-12-28T08:08:50.333Z,4.90
2022-12-28T08:11:26.062Z,8.18
2022-12-28T08:13:59.337Z,7.22
2022-12-28T08:16:34.160Z,7.57
2022-12-28T08:19:07.450Z,5.38
2022-12-28T08:21:42.332Z,5.05
2022-12-28T08:24:19.595Z,4.55
2022-12-28T08:26:52.585Z,5.20
2022-12-28T08:29:25.487Z,7.57
2022-12-28T08:31:58.360Z,3.65
2022-12-28T08:34:30.913Z,2.33
2022-12-28T08:37:03.837Z,2.00
2022-12-28T08:39:36.518Z,2.72
2022-12-28T08:42:09.387Z,2.15
2022-12-28T08:44:42.001Z,4.50
2022-12-28T08:47:14.968Z,3.70
2022-12-28T08:49:47.594Z,7.13
2022-12-28T08:52:20.479Z,12.00
2022-12-28T08:54:53.036Z,9.00
2022-12-28T08:57:25.943Z,5.25
2022-12-28T08:59:58.451Z,5.13
2022-12-28T09:02:31.658Z,10.20
2022-12-28T09:05:04.652Z,5.40
2022-12-28T09:07:37.579Z,3.60
2022-12-28T09:10:10.318Z,4.78
2022-12-28T09:12:43.450Z,3.42
2022-12-28T09:15:16.062Z,4.10
2022-12-28T09:17:49.008Z,2.83
2022-12-28T09:20:21.539Z,2.58
2022-12-28T09:22:55.009Z,3.08
2022-12-28T09:25:27.494Z,2.97
2022-12-28T09:28:00.397Z,4.80
2022-12-28T09:30:33.108Z,3.50
2022-12-28T09:33:24.548Z,5.10
2022-12-28T09:36:04.093Z,5.67
2022-12-28T09:38:37.060Z,4.68
2022-12-28T09:41:19.370Z,4.45
2022-12-28T09:43:54.190Z,2.60
2022-12-28T09:46:26.917Z,4.13
2022-12-28T09:49:01.127Z,3.58
2022-12-28T09:51:35.845Z,2.33
2022-12-28T09:54:08.742Z,2.65
2022-12-28T09:56:43.259Z,2.50
2022-12-28T09:59:17.773Z,1.95
2022-12-28T10:01:59.258Z,2.03
2022-12-28T10:04:32.234Z,1.77
2022-12-28T10:07:04.814Z,2.75
2022-12-28T10:09:40.776Z,2.00
2022-12-28T10:12:15.151Z,4.40
2022-12-28T10:14:48.414Z,3.00
2022-12-28T10:17:23.235Z,4.07
2022-12-28T10:19:57.729Z,3.97
2022-12-28T10:22:36.377Z,3.45
2022-12-28T10:25:17.190Z,1.98
2022-12-28T10:27:50.191Z,2.30
2022-12-28T10:30:27.462Z,2.55
2022-12-28T10:33:03.444Z,2.20
2022-12-28T10:35:41.604Z,3.03
2022-12-28T10:38:27.867Z,2.25
2022-12-28T10:41:01.407Z,3.13
2022-12-28T10:43:35.230Z,4.10
2022-12-28T10:46:15.380Z,3.30
2022-12-28T10:48:50.475Z,2.22
2022-12-28T10:51:25.357Z,2.65
2022-12-28T10:53:58.497Z,2.97
2022-12-28T10:56:32.758Z,3.83
2022-12-28T10:59:11.599Z,6.18
2022-12-28T11:01:44.771Z,4.18
2022-12-28T11:04:22.286Z,4.93
2022-12-28T11:07:00.635Z,2.70
2022-12-28T11:09:35.579Z,3.05
2022-12-28T11:12:18.332Z,3.15
2022-12-28T11:14:52.739Z,3.60
2022-12-28T11:17:27.580Z,2.20
2022-12-28T11:20:08.828Z,2.30
2022-12-28T11:22:41.845Z,2.58
2022-12-28T11:25:21.942Z,2.88
2022-12-28T11:27:54.945Z,3.35
2022-12-28T11:30:29.161Z,6.25
2022-12-28T11:33:02.739Z,3.50
2022-12-28T11:35:36.515Z,3.25
2022-12-28T11:38:12.418Z,2.92
2022-12-28T11:40:44.977Z,2.78
2022-12-28T11:43:30.084Z,3.45
2022-12-28T11:46:04.151Z,4.15
2022-12-28T11:48:43.288Z,4.82
2022-12-28T11:51:21.852Z,5.32
2022-12-28T11:53:57.923Z,4.28
2022-12-28T11:56:45.704Z,3.80
2022-12-28T11:59:25.018Z,3.85
2022-12-28T12:02:01.577Z,7.60
2022-12-28T12:04:42.579Z,6.78
2022-12-28T12:07:20.481Z,6.63
2022-12-28T12:10:12.530Z,2.90
2022-12-28T12:12:49.376Z,2.53
2022-12-28T12:15:25.262Z,2.78
2022-12-28T12:18:04.840Z,2.88
2022-12-28T12:20:50.961Z,2.83
2022-12-28T12:23:29.601Z,2.17
2022-12-28T12:26:16.662Z,1.87
2022-12-28T12:28:51.185Z,2.65
2022-12-28T12:31:34.249Z,2.95
2022-12-28T12:34:23.923Z,2.70
2022-12-28T12:36:56.862Z,2.58
2022-12-28T12:39:39.843Z,3.35
2022-12-28T12:42:26.576Z,3.50
2022-12-28T12:45:03.097Z,2.78
2022-12-28T12:47:54.520Z,2.42
2022-12-28T12:50:45.448Z,3.17
2022-12-28T12:53:18.318Z,3.88
2022-12-28T12:55:50.885Z,2.90
2022-12-28T12:58:26.611Z,2.05
2022-12-28T13:01:14.569Z,4.30
2022-12-28T13:03:51.359Z,2.25
2022-12-28T13:06:25.120Z,3.83
2022-12-28T13:09:05.008Z,3.33
2022-12-28T13:11:38.869Z,4.68
2022-12-28T13:14:19.302Z,5.25
2022-12-28T13:16:55.932Z,3.90
2022-12-28T13:19:30.231Z,4.35
2022-12-28T13:22:04.372Z,4.53
2022-12-28T13:24:40.540Z,5.07
2022-12-28T13:27:20.082Z,9.57
2022-12-28T13:29:54.066Z,6.53
2022-12-28T13:32:30.387Z,7.50
2022-12-28T13:35:20.637Z,6.00
2022-12-28T13:38:03.275Z,4.68
2022-12-28T13:40:38.266Z,4.13
2022-12-28T13:43:26.557Z,3.10
2022-12-28T13:46:03.033Z,3.33
2022-12-28T13:48:37.713Z,4.20
2022-12-28T13:51:12.556Z,2.90
2022-12-28T13:53:47.777Z,2.70
2022-12-28T13:56:21.474Z,3.08
2022-12-28T13:58:59.661Z,2.40
2022-12-28T14:01:35.956Z,3.65
2022-12-28T14:04:50.647Z,2.97
2022-12-28T14:07:03.870Z,2.75
2022-12-28T14:09:36.803Z,2.55
2022-12-28T14:12:10.225Z,3.10
2022-12-28T14:14:43.573Z,3.58
2022-12-28T14:17:16.917Z,4.07
2022-12-28T14:19:52.197Z,2.45
2022-12-28T14:22:36.433Z,2.60
2022-12-28T14:25:11.058Z,3.22
2022-12-28T14:27:45.220Z,3.50
2022-12-28T14:30:23.971Z,3.20
2022-12-28T14:32:57.798Z,2.97
2022-12-28T14:35:30.683Z,3.83
2022-12-28T14:38:03.700Z,4.30
2022-12-28T14:40:36.868Z,3.88
2022-12-28T14:43:26.601Z,4.43
2022-12-28T14:46:14.182Z,5.65
2022-12-28T14:48:47.287Z,4.32
2022-12-28T14:51:19.854Z,3.63
2022-12-28T14:54:28.108Z,3.72
2022-12-28T14:57:03.528Z,5.15
2022-12-28T14:59:38.637Z,5.03
2022-12-28T15:02:30.253Z,3.08
2022-12-28T15:05:03.638Z,3.83
2022-12-28T15:07:36.240Z,3.60
2022-12-28T15:10:09.273Z,5.45
2022-12-28T15:12:41.854Z,4.63
2022-12-28T15:15:14.856Z,4.55
2022-12-28T15:17:47.654Z,5.18
2022-12-28T15:20:20.657Z,4.60
2022-12-28T15:22:53.295Z,4.25
2022-12-28T15:25:26.325Z,3.63
2022-12-28T15:27:58.894Z,4.07
2022-12-28T15:30:31.770Z,4.50
2022-12-28T15:33:04.349Z,3.90
2022-12-28T15:35:37.413Z,3.35
2022-12-28T15:38:10.006Z,3.45
2022-12-28T15:40:42.996Z,3.55
2022-12-28T15:43:15.459Z,3.03
2022-12-28T15:45:55.039Z,2.20
2022-12-28T15:48:30.626Z,5.10
2022-12-28T15:51:03.554Z,5.30
2022-12-28T15:53:36.722Z,4.93
2022-12-28T15:56:23.028Z,4.90
2022-12-28T15:58:56.452Z,2.95
2022-12-28T16:01:30.187Z,3.30
2022-12-28T16:04:03.155Z,3.42
2022-12-28T16:06:41.777Z,3.15
2022-12-28T16:09:16.648Z,2.03
2022-12-28T16:11:54.909Z,3.00
2022-12-28T16:14:27.856Z,3.42
2022-12-28T16:17:00.891Z,3.80
2022-12-28T16:19:33.533Z,4.50
2022-12-28T16:22:06.475Z,4.05
2022-12-28T16:24:39.183Z,3.83
2022-12-28T16:27:12.514Z,2.92
2022-12-28T16:29:52.707Z,3.83
2022-12-28T16:32:28.518Z,5.03
2022-12-28T16:35:01.060Z,3.55
2022-12-28T16:37:34.122Z,6.63
2022-12-28T16:40:07.261Z,4.07
2022-12-28T16:42:46.247Z,4.32
2022-12-28T16:45:18.963Z,3.35
2022-12-28T16:47:51.805Z,4.43
2022-12-28T16:50:24.380Z,3.97
2022-12-28T16:53:01.317Z,3.90
2022-12-28T16:55:38.699Z,5.15
2022-12-28T16:58:11.647Z,4.05
2022-12-28T17:00:44.425Z,3.97
2022-12-28T17:03:17.329Z,4.38
2022-12-28T17:05:50.892Z,10.30
2022-12-28T17:08:23.836Z,11.52
2022-12-28T17:10:57.232Z,6.47
2022-12-28T17:13:30.177Z,5.22
2022-12-28T17:16:02.874Z,3.85
2022-12-28T17:18:36.143Z,4.35
2022-12-28T17:21:10.588Z,4.72
2022-12-28T17:23:43.728Z,3.05
2022-12-28T17:26:16.258Z,3.08
2022-12-28T17:28:49.161Z,3.35
2022-12-28T17:31:23.078Z,3.63
2022-12-28T17:33:58.095Z,3.78
2022-12-28T17:36:30.647Z,3.78
2022-12-28T17:39:04.308Z,4.28
2022-12-28T17:41:36.780Z,3.10
2022-12-28T17:44:10.546Z,2.67
2022-12-28T17:46:43.088Z,3.42
2022-12-28T17:49:16.402Z,3.53
2022-12-28T17:51:49.055Z,3.92
2022-12-28T17:54:22.179Z,5.28
2022-12-28T17:56:55.179Z,4.63
2022-12-28T17:59:28.093Z,3.78
2022-12-28T18:02:02.240Z,4.78
2022-12-28T18:04:35.897Z,6.22
2022-12-28T18:07:08.461Z,3.75
2022-12-28T18:09:41.431Z,4.35
2022-12-28T18:12:13.970Z,4.38
2022-12-28T18:14:46.970Z,5.18
2022-12-28T18:17:23.564Z,3.75
2022-12-28T18:19:56.535Z,5.70
2022-12-28T18:22:29.359Z,7.85
2022-12-28T18:25:02.283Z,5.45
2022-12-28T18:27:35.536Z,5.65
2022-12-28T18:30:09.581Z,4.88
2022-12-28T18:32:43.651Z,5.97
2022-12-28T18:35:17.291Z,4.28
2022-12-28T18:37:49.819Z,4.75
2022-12-28T18:40:24.316Z,4.80
2022-12-28T18:42:58.615Z,4.63
2022-12-28T18:45:31.746Z,4.47
2022-12-28T18:48:05.197Z,4.65
2022-12-28T18:50:38.121Z,5.70
2022-12-28T18:53:10.629Z,5.10
2022-12-28T18:55:45.621Z,3.78
2022-12-28T18:58:18.369Z,3.17
2022-12-28T19:00:51.413Z,2.72
2022-12-28T19:03:24.173Z,3.50
2022-12-28T19:06:03.085Z,4.90
2022-12-28T19:08:36.929Z,5.63
2022-12-28T19:11:10.400Z,8.23
2022-12-28T19:13:43.036Z,5.43
2022-12-28T19:16:17.291Z,7.82
2022-12-28T19:18:55.393Z,5.50
2022-12-28T19:21:30.048Z,5.00
2022-12-28T19:24:04.006Z,5.20
2022-12-28T19:26:36.891Z,6.13
2022-12-28T19:29:11.085Z,6.13
2022-12-28T19:31:44.346Z,3.85
2022-12-28T19:34:17.152Z,7.80
2022-12-28T19:36:49.965Z,7.18
2022-12-28T19:39:22.680Z,7.38
2022-12-28T19:41:55.797Z,7.45
2022-12-28T19:44:29.659Z,4.88
2022-12-28T19:47:02.727Z,7.97
2022-12-28T19:49:35.377Z,5.95
2022-12-28T19:52:08.393Z,6.53
2022-12-28T19:54:42.115Z,6.38
2022-12-28T19:57:14.999Z,6.53
2022-12-28T19:59:48.253Z,6.53
2022-12-28T20:02:21.317Z,6.55
2022-12-28T20:04:54.807Z,6.47
2022-12-28T20:07:27.707Z,9.10
2022-12-28T20:10:00.210Z,6.55
2022-12-28T20:12:33.134Z,7.57
2022-12-28T20:15:06.289Z,6.30
2022-12-28T20:17:39.168Z,6.55
2022-12-28T20:20:13.697Z,6.05
2022-12-28T20:22:48.727Z,6.25
2022-12-28T20:25:21.273Z,8.40
2022-12-28T20:27:54.533Z,6.65
2022-12-28T20:30:27.104Z,8.10
2022-12-28T20:33:00.054Z,9.13
2022-12-28T20:35:32.793Z,6.10
2022-12-28T20:38:05.625Z,4.18
2022-12-28T20:40:38.223Z,5.18
2022-12-28T20:43:26.025Z,2.65
2022-12-28T20:45:58.866Z,5.38
2022-12-28T20:48:32.346Z,4.45
2022-12-28T20:51:05.042Z,4.72
2022-12-28T20:53:38.631Z,4.22
2022-12-28T20:56:11.311Z,4.18
2022-12-28T20:58:44.352Z,4.63
2022-12-28T21:01:17.294Z,4.95
2022-12-28T21:03:50.464Z,3.10
2022-12-28T21:06:23.160Z,4.68
2022-12-28T21:08:56.219Z,5.82
2022-12-28T21:11:33.466Z,5.78
2022-12-28T21:14:06.529Z,7.72
2022-12-28T21:16:40.070Z,6.57
2022-12-28T21:19:13.147Z,5.65
2022-12-28T21:21:48.680Z,4.57
2022-12-28T21:24:21.848Z,4.60
2022-12-28T21:26:54.356Z,5.53
2022-12-28T21:29:27.736Z,4.43
2022-12-28T21:32:00.362Z,6.43
2022-12-28T21:34:33.381Z,6.10
2022-12-28T21:37:26.087Z,3.50
2022-12-28T21:39:59.056Z,4.80
2022-12-28T21:42:31.779Z,5.15
2022-12-28T21:45:04.985Z,4.28
2022-12-28T21:47:37.701Z,4.50
2022-12-28T21:50:11.230Z,3.72
2022-12-28T21:52:43.719Z,4.47
2022-12-28T21:55:35.168Z,3.30
2022-12-28T21:58:07.645Z,3.08
2022-12-28T22:00:59.125Z,2.95
2022-12-28T22:03:50.119Z,3.97
2022-12-28T22:06:22.984Z,3.72
2022-12-28T22:09:14.091Z,4.65
2022-12-28T22:12:05.698Z,3.97
2022-12-28T22:14:38.252Z,4.25
2022-12-28T22:17:14.416Z,4.18
2022-12-28T22:19:47.850Z,3.92
2022-12-28T22:22:20.879Z,3.90
2022-12-28T22:24:53.452Z,4.75
2022-12-28T22:27:26.390Z,6.45
2022-12-28T22:29:58.975Z,5.40
2022-12-28T22:32:32.029Z,6.82
2022-12-28T22:35:04.788Z,7.00
2022-12-28T22:37:37.825Z,7.60
2022-12-28T22:40:10.932Z,10.35
2022-12-28T22:42:44.628Z,7.60
2022-12-28T22:45:18.650Z,10.00
2022-12-28T22:47:54.429Z,6.93
2022-12-28T22:50:27.749Z,8.15
2022-12-28T22:53:00.644Z,6.47
2022-12-28T22:55:33.763Z,5.25
2022-12-28T22:58:07.832Z,3.88
2022-12-28T23:00:40.397Z,3.58
2022-12-28T23:03:13.304Z,4.00
2022-12-28T23:05:52.197Z,3.88
2022-12-28T23:08:25.080Z,4.43
2022-12-28T23:10:59.176Z,3.95
2022-12-28T23:13:35.067Z,5.03
2022-12-28T23:16:07.656Z,2.58
2022-12-28T23:18:58.833Z,3.78
2022-12-28T23:21:57.528Z,3.78
2022-12-28T23:24:48.764Z,3.47
2022-12-28T23:27:21.260Z,3.45
2022-12-28T23:29:54.319Z,2.92
2022-12-28T23:32:26.919Z,4.00
2022-12-28T23:34:59.858Z,4.78
2022-12-28T23:37:32.639Z,2.08
2022-12-28T23:40:12.935Z,2.97
2022-12-28T23:42:45.529Z,3.13
2022-12-28T23:45:18.599Z,2.08
2022-12-28T23:47:52.517Z,2.83
2022-12-28T23:50:25.465Z,2.40
2022-12-28T23:52:58.027Z,2.42
2022-12-28T23:55:31.122Z,2.17
2022-12-28T23:58:03.799Z,2.53
